createdAt,value
2019-03-12T00:00:34.168Z,90.70
2019-03-12T00:03:02.196Z,90.50
2019-03-12T00:05:31.743Z,90.70
2019-03-12T00:07:59.812Z,90.70
2019-03-12T00:10:27.881Z,90.80
2019-03-12T00:12:55.911Z,91.00
2019-03-12T00:15:23.969Z,90.80
2019-03-12T00:17:52.100Z,90.80
2019-03-12T00:20:20.167Z,90.80
2019-03-12T00:22:48.960Z,90.80
2019-03-12T00:25:17.000Z,90.90
2019-03-12T00:27:45.818Z,90.90
2019-03-12T00:30:13.863Z,91.00
2019-03-12T00:32:41.960Z,90.90
2019-03-12T00:35:10.020Z,91.00
2019-03-12T00:37:38.060Z,91.20
2019-03-12T00:40:06.887Z,91.30
2019-03-12T00:42:34.927Z,91.00
2019-03-12T00:45:03.737Z,90.90
2019-03-12T00:47:31.771Z,91.00
2019-03-12T00:49:59.880Z,90.70
2019-03-12T00:52:27.911Z,90.90
2019-03-12T00:54:56.732Z,91.20
2019-03-12T00:57:25.507Z,91.00
2019-03-12T00:59:56.279Z,90.80
2019-03-12T01:02:22.371Z,90.90
2019-03-12T01:04:50.548Z,91.10
2019-03-12T01:07:18.623Z,91.10
2019-03-12T01:09:46.763Z,90.80
2019-03-12T01:12:14.775Z,90.80
2019-03-12T01:14:42.834Z,90.60
2019-03-12T01:17:10.866Z,90.40
2019-03-12T01:19:38.896Z,90.60
2019-03-12T01:22:06.944Z,90.60
2019-03-12T01:24:35.028Z,90.50
2019-03-12T01:27:03.060Z,90.60
2019-03-12T01:29:31.155Z,90.60
2019-03-12T01:31:59.223Z,90.40
2019-03-12T01:34:27.304Z,90.70
2019-03-12T01:36:55.368Z,90.70
2019-03-12T01:39:23.412Z,90.90
2019-03-12T01:41:52.238Z,90.80
2019-03-12T01:44:20.288Z,90.80
2019-03-12T01:46:49.085Z,90.70
2019-03-12T01:49:17.964Z,90.80
2019-03-12T01:51:46.010Z,90.80
2019-03-12T01:54:14.053Z,90.80
2019-03-12T01:56:42.105Z,90.70
2019-03-12T01:59:10.111Z,91.10
2019-03-12T02:01:38.154Z,91.00
2019-03-12T02:04:06.287Z,91.00
2019-03-12T02:06:34.341Z,91.00
2019-03-12T02:09:02.439Z,91.20
2019-03-12T02:11:30.505Z,91.30
2019-03-12T02:13:58.571Z,91.10
2019-03-12T02:16:26.629Z,91.20
2019-03-12T02:18:54.646Z,91.40
2019-03-12T02:21:22.689Z,91.50
2019-03-12T02:23:50.716Z,91.80
2019-03-12T02:26:20.363Z,91.70
2019-03-12T02:28:48.391Z,91.80
2019-03-12T02:31:16.406Z,91.80
2019-03-12T02:33:44.432Z,91.70
2019-03-12T02:36:12.535Z,91.40
2019-03-12T02:38:40.565Z,91.80
2019-03-12T02:41:08.603Z,91.60
2019-03-12T02:43:36.664Z,91.40
2019-03-12T02:46:04.718Z,91.30
2019-03-12T02:48:33.487Z,91.20
2019-03-12T02:51:02.297Z,91.30
2019-03-12T02:53:30.337Z,91.30
2019-03-12T02:56:01.866Z,91.50
2019-03-12T02:58:27.230Z,91.50
2019-03-12T03:00:55.271Z,91.80
2019-03-12T03:03:24.077Z,91.60
2019-03-12T03:05:58.731Z,91.70
2019-03-12T03:08:26.764Z,91.60
2019-03-12T03:10:55.572Z,91.60
2019-03-12T03:13:23.637Z,91.60
2019-03-12T03:15:52.529Z,91.90
2019-03-12T03:18:20.553Z,91.60
2019-03-12T03:20:48.668Z,91.70
2019-03-12T03:23:17.652Z,91.70
2019-03-12T03:25:45.653Z,91.60
2019-03-12T03:28:13.813Z,91.60
2019-03-12T03:30:41.851Z,91.70
2019-03-12T03:33:10.761Z,92.00
2019-03-12T03:35:38.841Z,92.00
2019-03-12T03:38:06.878Z,92.20
2019-03-12T03:40:35.676Z,92.30
2019-03-12T03:43:03.766Z,92.30
2019-03-12T03:45:31.791Z,92.40
2019-03-12T03:47:59.899Z,92.10
2019-03-12T03:50:27.935Z,92.20
2019-03-12T03:52:57.486Z,92.40
2019-03-12T03:55:25.557Z,92.40
2019-03-12T03:57:53.572Z,92.40
2019-03-12T04:00:21.691Z,92.50
2019-03-12T04:02:49.715Z,92.70
2019-03-12T04:05:17.817Z,92.30
2019-03-12T04:07:45.984Z,92.20
2019-03-12T04:10:13.925Z,92.20
2019-03-12T04:12:41.983Z,92.30
2019-03-12T04:15:11.745Z,92.40
2019-03-12T04:17:39.791Z,92.50
2019-03-12T04:20:09.382Z,92.60
2019-03-12T04:22:37.484Z,92.60
2019-03-12T04:25:05.489Z,92.60
2019-03-12T04:27:33.531Z,93.00
2019-03-12T04:30:01.559Z,92.80
2019-03-12T04:32:29.625Z,92.80
2019-03-12T04:34:57.623Z,92.90
2019-03-12T04:37:26.441Z,93.20
2019-03-12T04:39:54.452Z,93.20
2019-03-12T04:42:22.559Z,93.40
2019-03-12T04:44:50.676Z,93.40
2019-03-12T04:47:18.708Z,93.50
2019-03-12T04:49:46.776Z,93.70
2019-03-12T04:52:14.842Z,93.70
2019-03-12T04:54:42.879Z,93.80
2019-03-12T04:57:10.992Z,93.80
2019-03-12T04:59:39.089Z,93.90
2019-03-12T05:02:07.241Z,93.80
2019-03-12T05:04:35.271Z,93.90
2019-03-12T05:07:03.318Z,94.10
2019-03-12T05:09:31.340Z,94.10
2019-03-12T05:11:59.372Z,94.20
2019-03-12T05:14:28.210Z,94.00
2019-03-12T05:16:57.667Z,94.10
2019-03-12T05:19:25.766Z,94.20
2019-03-12T05:21:53.793Z,94.20
2019-03-12T05:24:21.832Z,94.10
2019-03-12T05:26:49.883Z,94.30
2019-03-12T05:29:17.955Z,94.30
2019-03-12T05:31:46.036Z,94.30
2019-03-12T05:34:14.085Z,94.30
2019-03-12T05:36:42.177Z,94.30
2019-03-12T05:39:10.961Z,94.20
2019-03-12T05:41:38.992Z,94.20
2019-03-12T05:44:07.023Z,94.30
2019-03-12T05:46:35.059Z,94.10
2019-03-12T05:49:03.122Z,94.10
2019-03-12T05:51:31.894Z,94.00
2019-03-12T05:54:00.800Z,93.90
2019-03-12T05:56:28.887Z,93.90
2019-03-12T05:58:56.956Z,93.90
2019-03-12T06:01:25.032Z,93.90
2019-03-12T06:03:53.085Z,93.70
2019-03-12T06:06:21.094Z,93.60
2019-03-12T06:08:49.142Z,93.40
2019-03-12T06:11:17.193Z,93.60
2019-03-12T06:13:45.988Z,93.20
2019-03-12T06:16:14.035Z,93.20
2019-03-12T06:18:42.852Z,93.10
2019-03-12T06:21:10.912Z,93.10
2019-03-12T06:23:38.968Z,93.20
2019-03-12T06:26:07.779Z,93.00
2019-03-12T06:28:35.858Z,93.00
2019-03-12T06:31:05.068Z,93.20
2019-03-12T06:33:38.751Z,92.90
2019-03-12T06:36:07.591Z,93.00
2019-03-12T06:38:37.256Z,92.80
2019-03-12T06:41:21.951Z,92.80
2019-03-12T06:43:50.787Z,92.50
2019-03-12T06:46:36.264Z,92.80
2019-03-12T06:49:04.743Z,93.10
2019-03-12T06:51:34.734Z,92.40
2019-03-12T06:54:14.243Z,92.90
2019-03-12T06:56:57.232Z,92.60
2019-03-12T06:59:29.801Z,92.60
2019-03-12T07:01:57.843Z,92.40
2019-03-12T07:04:27.375Z,92.30
2019-03-12T07:07:06.876Z,92.30
2019-03-12T07:09:37.155Z,92.10
2019-03-12T07:12:07.629Z,91.80
2019-03-12T07:14:36.475Z,91.90
2019-03-12T07:17:05.075Z,92.00
2019-03-12T07:19:38.693Z,91.40
2019-03-12T07:22:21.772Z,91.20
2019-03-12T07:24:51.640Z,91.30
2019-03-12T07:27:21.248Z,90.90
2019-03-12T07:29:55.875Z,91.00
2019-03-12T07:35:30.192Z,90.40
2019-03-12T07:38:04.008Z,90.10
2019-03-12T07:40:48.748Z,90.10
2019-03-12T07:43:17.284Z,88.70
2019-03-12T07:45:46.109Z,87.80
2019-03-12T07:48:14.578Z,85.40
2019-03-12T07:50:42.619Z,82.80
2019-03-12T07:53:10.661Z,83.80
2019-03-12T07:55:41.158Z,83.00
2019-03-12T07:58:13.062Z,83.40
2019-03-12T08:00:47.667Z,77.40
2019-03-12T08:03:18.904Z,71.50
2019-03-12T08:05:46.941Z,70.60
2019-03-12T08:08:18.808Z,66.70
2019-03-12T08:10:49.837Z,64.50
2019-03-12T08:13:23.423Z,66.20
2019-03-12T08:15:57.072Z,59.80
2019-03-12T08:18:42.781Z,58.40
2019-03-12T08:21:22.330Z,55.80
2019-03-12T08:24:00.971Z,55.80
2019-03-12T08:26:46.812Z,56.30
2019-03-12T08:29:19.636Z,53.70
2019-03-12T08:34:48.984Z,55.30
2019-03-12T08:37:17.847Z,52.90
2019-03-12T08:42:54.787Z,51.70
2019-03-12T08:45:26.356Z,52.60
2019-03-12T08:47:56.619Z,51.90
2019-03-12T08:50:39.514Z,51.90
2019-03-12T08:53:08.969Z,50.50
2019-03-12T08:55:51.894Z,46.80
2019-03-12T08:58:22.517Z,46.30
2019-03-12T09:00:50.534Z,47.10
2019-03-12T09:03:36.284Z,49.30
2019-03-12T09:06:05.162Z,44.60
2019-03-12T09:08:35.728Z,44.40
2019-03-12T09:11:08.170Z,44.70
2019-03-12T09:13:46.298Z,44.70
2019-03-12T09:16:21.085Z,44.50
2019-03-12T09:18:51.009Z,44.40
2019-03-12T09:21:28.973Z,43.70
2019-03-12T09:24:01.707Z,44.20
2019-03-12T09:26:40.587Z,43.50
2019-03-12T09:29:09.111Z,42.80
2019-03-12T09:31:40.635Z,41.40
2019-03-12T09:34:08.643Z,41.10
2019-03-12T09:36:39.400Z,43.60
2019-03-12T09:39:09.342Z,43.60
2019-03-12T09:41:43.246Z,41.30
2019-03-12T09:44:28.928Z,40.30
2019-03-12T09:47:08.723Z,36.10
2019-03-12T09:49:36.751Z,38.90
2019-03-12T09:52:04.808Z,40.70
2019-03-12T09:54:39.417Z,39.80
2019-03-12T09:57:09.632Z,33.00
2019-03-12T09:59:53.495Z,33.00
2019-03-12T10:02:27.258Z,32.90
2019-03-12T10:04:56.071Z,35.70
2019-03-12T10:07:40.134Z,35.60
2019-03-12T10:10:07.039Z,37.80
2019-03-12T10:12:46.559Z,36.60
2019-03-12T10:15:15.554Z,36.60
2019-03-12T10:17:46.188Z,37.40
2019-03-12T10:20:29.860Z,34.30
2019-03-12T10:23:00.392Z,33.50
2019-03-12T10:25:28.423Z,36.00
2019-03-12T10:27:58.014Z,31.80
2019-03-12T10:30:27.895Z,31.70
2019-03-12T10:32:58.425Z,30.80
2019-03-12T10:35:32.271Z,30.70
2019-03-12T10:38:13.891Z,31.20
2019-03-12T10:40:47.783Z,32.90
2019-03-12T10:43:17.391Z,31.90
2019-03-12T10:45:45.842Z,31.90
2019-03-12T10:48:13.875Z,32.00
2019-03-12T10:50:41.911Z,32.00
2019-03-12T10:53:10.752Z,32.20
2019-03-12T10:55:38.886Z,32.20
2019-03-12T10:58:06.931Z,31.70
2019-03-12T11:00:35.743Z,32.70
2019-03-12T11:03:03.871Z,32.70
2019-03-12T11:05:44.930Z,30.80
2019-03-12T11:08:00.684Z,30.80
2019-03-12T11:10:28.736Z,31.60
2019-03-12T11:12:56.784Z,29.00
2019-03-12T11:15:24.889Z,30.40
2019-03-12T11:17:52.927Z,31.70
2019-03-12T11:20:22.511Z,31.20
2019-03-12T11:22:50.629Z,31.00
2019-03-12T11:25:27.137Z,30.60
2019-03-12T11:27:47.462Z,30.50
2019-03-12T11:30:17.000Z,30.80
2019-03-12T11:32:45.073Z,30.80
2019-03-12T11:35:13.154Z,31.80
2019-03-12T11:37:41.215Z,30.50
2019-03-12T11:40:18.673Z,31.20
2019-03-12T11:42:46.773Z,29.70
2019-03-12T11:45:18.750Z,30.80
2019-03-12T11:47:43.950Z,30.20
2019-03-12T11:50:12.748Z,30.20
2019-03-12T11:52:40.817Z,31.60
2019-03-12T11:55:09.096Z,32.00
2019-03-12T11:57:37.218Z,29.40
2019-03-12T12:00:05.958Z,28.50
2019-03-12T12:02:34.143Z,30.00
2019-03-12T12:05:02.454Z,29.70
2019-03-12T12:07:31.296Z,29.50
2019-03-12T12:09:59.376Z,29.50
2019-03-12T12:12:27.524Z,28.70
2019-03-12T12:14:55.603Z,28.90
2019-03-12T12:17:23.615Z,27.90
2019-03-12T12:19:52.536Z,28.60
2019-03-12T12:22:20.575Z,28.60
2019-03-12T12:24:48.788Z,29.00
2019-03-12T12:27:16.837Z,29.00
2019-03-12T12:29:45.643Z,27.60
2019-03-12T12:32:13.709Z,27.60
2019-03-12T12:34:41.783Z,28.80
2019-03-12T12:37:09.847Z,28.80
2019-03-12T12:39:37.939Z,29.30
2019-03-12T12:42:05.991Z,27.70
2019-03-12T12:44:34.041Z,28.00
2019-03-12T12:47:02.858Z,29.10
2019-03-12T12:49:30.900Z,29.10
2019-03-12T12:51:59.804Z,26.20
2019-03-12T12:54:27.892Z,26.10
2019-03-12T12:56:55.935Z,27.00
2019-03-12T12:59:23.990Z,26.90
2019-03-12T13:01:52.903Z,28.20
2019-03-12T13:04:20.948Z,28.20
2019-03-12T13:06:49.859Z,27.40
2019-03-12T13:09:17.917Z,27.40
2019-03-12T13:11:46.771Z,27.60
2019-03-12T13:14:15.790Z,27.60
2019-03-12T13:16:44.606Z,27.50
2019-03-12T13:19:12.675Z,27.40
2019-03-12T13:21:40.734Z,27.60
2019-03-12T13:24:08.748Z,28.00
2019-03-12T13:26:36.996Z,27.60
2019-03-12T13:29:05.039Z,28.60
2019-03-12T13:31:33.856Z,27.00
2019-03-12T13:34:01.950Z,27.00
2019-03-12T13:36:30.194Z,26.80
2019-03-12T13:38:58.260Z,27.10
2019-03-12T13:41:26.707Z,28.20
2019-03-12T13:43:55.581Z,27.70
2019-03-12T13:46:24.156Z,27.60
2019-03-12T13:48:52.313Z,27.60
2019-03-12T13:51:20.302Z,27.60
2019-03-12T13:53:48.608Z,27.80
2019-03-12T13:56:16.413Z,26.70
2019-03-12T13:58:44.480Z,26.50
2019-03-12T14:01:12.535Z,26.80
2019-03-12T14:03:40.581Z,26.70
2019-03-12T14:06:08.931Z,27.10
2019-03-12T14:08:36.951Z,25.80
2019-03-12T14:11:05.000Z,25.60
2019-03-12T14:13:33.800Z,25.40
2019-03-12T14:16:01.851Z,25.40
2019-03-12T14:18:32.442Z,25.00
2019-03-12T14:21:01.487Z,25.00
2019-03-12T14:23:30.394Z,23.60
2019-03-12T14:25:58.471Z,23.60
2019-03-12T14:28:26.544Z,28.30
2019-03-12T14:30:55.415Z,23.80
2019-03-12T14:33:24.200Z,24.20
2019-03-12T14:35:53.015Z,23.00
2019-03-12T14:38:21.059Z,23.00
2019-03-12T14:40:49.234Z,23.70
2019-03-12T14:43:18.032Z,24.40
2019-03-12T14:45:46.935Z,24.40
2019-03-12T14:48:27.063Z,24.70
2019-03-12T14:50:55.104Z,24.40
2019-03-12T14:53:23.165Z,24.60
2019-03-12T14:55:52.723Z,26.20
2019-03-12T14:58:20.763Z,26.20
2019-03-12T15:00:49.587Z,24.90
2019-03-12T15:03:17.607Z,24.90
2019-03-12T15:05:47.146Z,25.20
2019-03-12T15:08:15.329Z,25.20
2019-03-12T15:10:43.496Z,25.80
2019-03-12T15:13:11.560Z,26.20
2019-03-12T15:15:39.740Z,25.50
2019-03-12T15:18:07.787Z,25.20
2019-03-12T15:20:35.855Z,24.80
2019-03-12T15:23:04.670Z,24.90
2019-03-12T15:25:32.730Z,25.00
2019-03-12T15:28:01.731Z,24.80
2019-03-12T15:30:29.770Z,24.90
2019-03-12T15:32:57.869Z,24.90
2019-03-12T15:35:25.904Z,24.90
2019-03-12T15:37:54.115Z,25.50
2019-03-12T15:40:22.165Z,25.30
2019-03-12T15:42:50.971Z,25.50
2019-03-12T15:45:19.088Z,25.40
2019-03-12T15:47:47.120Z,25.20
2019-03-12T15:50:15.182Z,25.30
2019-03-12T15:52:43.970Z,25.70
2019-03-12T15:55:12.010Z,25.70
2019-03-12T15:57:40.042Z,25.80
2019-03-12T16:00:11.009Z,26.00
2019-03-12T16:02:39.132Z,26.10
2019-03-12T16:05:07.163Z,25.50
2019-03-12T16:07:35.259Z,25.60
2019-03-12T16:10:03.306Z,25.70
2019-03-12T16:12:32.221Z,25.50
2019-03-12T16:15:00.519Z,25.50
2019-03-12T16:17:30.065Z,25.60
2019-03-12T16:19:57.939Z,25.60
2019-03-12T16:22:26.764Z,25.60
2019-03-12T16:24:54.883Z,25.60
2019-03-12T16:27:23.008Z,25.40
2019-03-12T16:29:51.049Z,25.50
2019-03-12T16:32:19.860Z,26.00
2019-03-12T16:34:47.927Z,26.00
2019-03-12T16:37:16.391Z,26.10
2019-03-12T16:39:44.390Z,26.20
2019-03-12T16:42:12.407Z,26.20
2019-03-12T16:44:40.520Z,26.60
2019-03-12T16:47:08.559Z,27.00
2019-03-12T16:49:37.479Z,27.90
2019-03-12T16:52:05.556Z,27.90
2019-03-12T16:54:33.596Z,28.40
2019-03-12T16:57:02.400Z,29.40
2019-03-12T16:59:30.528Z,29.40
2019-03-12T17:01:58.544Z,30.40
2019-03-12T17:04:26.592Z,31.20
2019-03-12T17:06:54.616Z,31.40
2019-03-12T17:09:22.655Z,32.00
2019-03-12T17:11:50.740Z,32.10
2019-03-12T17:14:19.615Z,33.30
2019-03-12T17:16:47.652Z,33.20
2019-03-12T17:19:15.701Z,34.00
2019-03-12T17:21:43.823Z,34.60
2019-03-12T17:24:11.906Z,35.60
2019-03-12T17:26:39.940Z,35.80
2019-03-12T17:29:08.856Z,36.60
2019-03-12T17:31:36.897Z,36.60
2019-03-12T17:34:05.008Z,37.20
2019-03-12T17:36:33.076Z,36.20
2019-03-12T17:39:01.135Z,35.70
2019-03-12T17:41:29.180Z,35.70
2019-03-12T17:43:58.165Z,35.50
2019-03-12T17:46:26.039Z,35.60
2019-03-12T17:48:54.844Z,36.20
2019-03-12T17:51:22.887Z,35.80
2019-03-12T17:53:50.921Z,35.80
2019-03-12T17:56:19.009Z,38.00
2019-03-12T17:58:47.140Z,48.20
2019-03-12T18:01:15.212Z,42.90
2019-03-12T18:03:43.275Z,35.00
2019-03-12T18:06:11.307Z,34.90
2019-03-12T18:08:39.429Z,36.00
2019-03-12T18:11:08.193Z,34.80
2019-03-12T18:13:37.095Z,34.70
2019-03-12T18:16:05.131Z,34.80
2019-03-12T18:18:33.231Z,35.00
2019-03-12T18:21:01.292Z,35.60
2019-03-12T18:23:30.097Z,35.80
2019-03-12T18:26:13.502Z,35.90
2019-03-12T18:28:41.906Z,35.50
2019-03-12T18:31:10.464Z,35.50
2019-03-12T18:33:39.263Z,36.10
2019-03-12T18:36:07.303Z,36.10
2019-03-12T18:38:35.353Z,36.70
2019-03-12T18:41:03.370Z,37.50
2019-03-12T18:43:31.429Z,37.00
2019-03-12T18:46:00.232Z,37.50
2019-03-12T18:48:28.278Z,37.50
2019-03-12T18:50:56.292Z,37.60
2019-03-12T18:53:24.336Z,37.80
2019-03-12T18:55:53.964Z,38.40
2019-03-12T18:58:22.028Z,38.40
2019-03-12T19:00:50.112Z,38.90
2019-03-12T19:03:18.135Z,39.20
2019-03-12T19:05:47.174Z,39.20
2019-03-12T19:08:15.236Z,39.40
2019-03-12T19:10:44.012Z,39.70
2019-03-12T19:13:12.060Z,39.70
2019-03-12T19:15:40.867Z,40.10
2019-03-12T19:18:08.951Z,40.10
2019-03-12T19:20:37.004Z,40.30
2019-03-12T19:23:05.092Z,40.40
2019-03-12T19:25:38.097Z,41.20
2019-03-12T19:28:03.135Z,40.70
2019-03-12T19:30:31.294Z,41.40
2019-03-12T19:33:08.572Z,41.30
2019-03-12T19:35:36.616Z,41.50
2019-03-12T19:38:04.672Z,41.20
2019-03-12T19:40:33.523Z,41.90
2019-03-12T19:43:01.627Z,41.90
2019-03-12T19:45:30.515Z,41.90
2019-03-12T19:47:59.287Z,41.80
2019-03-12T19:50:28.191Z,42.20
2019-03-12T19:52:57.131Z,42.30
2019-03-12T19:55:36.425Z,42.30
2019-03-12T19:58:04.470Z,42.90
2019-03-12T20:00:33.270Z,43.10
2019-03-12T20:03:10.733Z,43.10
2019-03-12T20:05:29.335Z,42.80
2019-03-12T20:07:57.508Z,42.90
2019-03-12T20:13:51.080Z,43.30
2019-03-12T20:16:39.999Z,43.70
2019-03-12T20:19:19.467Z,44.10
2019-03-12T20:22:10.013Z,44.20
2019-03-12T20:27:48.568Z,45.20
2019-03-12T20:30:22.557Z,45.30
2019-03-12T20:32:58.269Z,45.40
2019-03-12T20:38:34.936Z,45.70
2019-03-12T20:41:15.727Z,46.50
2019-03-12T20:44:21.292Z,46.50
2019-03-12T20:47:21.085Z,46.60
2019-03-12T20:52:56.142Z,47.00
2019-03-12T20:55:44.579Z,47.50
2019-03-12T20:58:24.467Z,47.50
2019-03-12T21:01:02.391Z,48.00
2019-03-12T21:07:11.764Z,48.70
2019-03-12T21:10:05.671Z,49.90
2019-03-12T21:16:05.934Z,50.50
2019-03-12T21:18:49.760Z,50.10
2019-03-12T21:24:24.131Z,49.60
2019-03-12T21:27:08.748Z,49.60
2019-03-12T21:29:42.337Z,49.70
2019-03-12T21:32:11.153Z,50.20
2019-03-12T21:34:39.303Z,50.20
2019-03-12T21:37:07.383Z,50.10
2019-03-12T21:39:36.271Z,50.00
2019-03-12T21:42:04.316Z,50.00
2019-03-12T21:44:33.239Z,49.10
2019-03-12T21:47:01.913Z,49.60
2019-03-12T21:49:30.555Z,49.60
2019-03-12T21:51:58.590Z,50.00
2019-03-12T21:54:26.633Z,50.50
2019-03-12T21:56:54.713Z,51.10
2019-03-12T21:59:22.748Z,50.60
2019-03-12T22:01:51.556Z,51.00
2019-03-12T22:04:19.598Z,50.90
2019-03-12T22:06:47.643Z,50.30
2019-03-12T22:09:15.659Z,50.60
2019-03-12T22:11:44.463Z,50.10
2019-03-12T22:14:12.507Z,50.20
2019-03-12T22:16:41.316Z,51.00
2019-03-12T22:19:09.386Z,51.10
2019-03-12T22:21:39.857Z,51.20
2019-03-12T22:24:08.363Z,51.20
2019-03-12T22:26:36.401Z,51.00
2019-03-12T22:29:04.543Z,51.30
2019-03-12T22:31:32.579Z,51.30
2019-03-12T22:34:00.691Z,51.80
2019-03-12T22:36:28.727Z,51.70
2019-03-12T22:38:57.539Z,52.50
2019-03-12T22:41:25.611Z,52.40
2019-03-12T22:43:53.655Z,52.80
2019-03-12T22:46:22.455Z,53.40
2019-03-12T22:48:50.514Z,53.30
2019-03-12T22:51:19.314Z,53.20
2019-03-12T22:53:48.223Z,53.10
2019-03-12T22:56:16.265Z,53.20
2019-03-12T22:58:45.163Z,53.40
2019-03-12T23:01:13.239Z,53.40
2019-03-12T23:03:41.296Z,52.80
2019-03-12T23:06:09.382Z,52.70
2019-03-12T23:08:37.459Z,51.90
2019-03-12T23:11:05.528Z,51.80
2019-03-12T23:13:33.572Z,52.00
2019-03-12T23:16:02.380Z,53.10
2019-03-12T23:18:30.460Z,53.10
2019-03-12T23:20:59.255Z,52.30
2019-03-12T23:23:27.282Z,52.30
2019-03-12T23:25:56.088Z,52.80
2019-03-12T23:28:24.182Z,52.50
2019-03-12T23:30:52.226Z,52.90
2019-03-12T23:33:20.255Z,52.90
2019-03-12T23:35:48.380Z,52.70
2019-03-12T23:38:16.444Z,52.70
2019-03-12T23:40:44.519Z,52.70
2019-03-12T23:43:12.608Z,53.10
2019-03-12T23:45:40.652Z,53.00
2019-03-12T23:48:08.732Z,53.00
2019-03-12T23:50:36.807Z,52.80
2019-03-12T23:53:04.849Z,52.70
2019-03-12T23:55:33.672Z,51.10
2019-03-12T23:58:01.704Z,51.70
